sensor_id;sensor_type;location;lat;lon;timestamp;temperature;humidity
37560;DHT22;23398;50.928;7.084;2023-05-18T00:01:47;8.10;67.10
37560;DHT22;23398;50.928;7.084;2023-05-18T00:04:12;8.00;67.20
37560;DHT22;23398;50.928;7.084;2023-05-18T00:06:38;8.00;67.50
37560;DHT22;23398;50.928;7.084;2023-05-18T00:09:03;7.90;67.50
37560;DHT22;23398;50.928;7.084;2023-05-18T00:11:29;7.90;67.70
37560;DHT22;23398;50.928;7.084;2023-05-18T00:13:55;7.80;67.90
37560;DHT22;23398;50.928;7.084;2023-05-18T00:16:20;7.80;68.00
37560;DHT22;23398;50.928;7.084;2023-05-18T00:18:46;7.70;68.20
37560;DHT22;23398;50.928;7.084;2023-05-18T00:21:12;7.70;68.30
37560;DHT22;23398;50.928;7.084;2023-05-18T00:23:37;7.70;68.40
37560;DHT22;23398;50.928;7.084;2023-05-18T00:26:04;7.60;68.30
37560;DHT22;23398;50.928;7.084;2023-05-18T00:28:29;7.60;68.30
37560;DHT22;23398;50.928;7.084;2023-05-18T00:30:56;7.50;68.30
37560;DHT22;23398;50.928;7.084;2023-05-18T00:33:21;7.50;68.80
37560;DHT22;23398;50.928;7.084;2023-05-18T00:35:47;7.40;69.20
37560;DHT22;23398;50.928;7.084;2023-05-18T00:38:13;7.40;69.50
37560;DHT22;23398;50.928;7.084;2023-05-18T00:40:42;7.40;70.00
37560;DHT22;23398;50.928;7.084;2023-05-18T00:43:08;7.40;69.60
37560;DHT22;23398;50.928;7.084;2023-05-18T00:45:34;7.30;70.40
37560;DHT22;23398;50.928;7.084;2023-05-18T00:48:00;7.30;69.60
37560;DHT22;23398;50.928;7.084;2023-05-18T00:50:26;7.30;69.70
37560;DHT22;23398;50.928;7.084;2023-05-18T00:52:51;7.30;70.00
37560;DHT22;23398;50.928;7.084;2023-05-18T00:55:17;7.20;70.50
37560;DHT22;23398;50.928;7.084;2023-05-18T00:57:43;7.20;70.90
37560;DHT22;23398;50.928;7.084;2023-05-18T01:00:14;7.20;71.20
37560;DHT22;23398;50.928;7.084;2023-05-18T01:02:40;7.20;71.40
37560;DHT22;23398;50.928;7.084;2023-05-18T01:05:08;7.20;71.40
37560;DHT22;23398;50.928;7.084;2023-05-18T01:07:38;7.20;71.60
37560;DHT22;23398;50.928;7.084;2023-05-18T01:10:07;7.10;71.60
37560;DHT22;23398;50.928;7.084;2023-05-18T01:12:58;7.10;71.70
37560;DHT22;23398;50.928;7.084;2023-05-18T01:15:36;7.10;72.50
37560;DHT22;23398;50.928;7.084;2023-05-18T01:18:22;7.10;72.00
37560;DHT22;23398;50.928;7.084;2023-05-18T01:26:22;7.00;72.60
37560;DHT22;23398;50.928;7.084;2023-05-18T01:28:50;6.90;72.30
37560;DHT22;23398;50.928;7.084;2023-05-18T01:31:16;6.90;72.50
37560;DHT22;23398;50.928;7.084;2023-05-18T01:33:43;6.90;72.90
37560;DHT22;23398;50.928;7.084;2023-05-18T01:36:09;6.90;74.00
37560;DHT22;23398;50.928;7.084;2023-05-18T01:38:35;6.90;73.60
37560;DHT22;23398;50.928;7.084;2023-05-18T01:44:05;6.80;74.40
37560;DHT22;23398;50.928;7.084;2023-05-18T01:49:52;6.80;74.40
37560;DHT22;23398;50.928;7.084;2023-05-18T01:52:53;6.80;73.90
37560;DHT22;23398;50.928;7.084;2023-05-18T01:55:23;6.80;74.10
37560;DHT22;23398;50.928;7.084;2023-05-18T01:57:51;6.70;73.20
37560;DHT22;23398;50.928;7.084;2023-05-18T02:00:19;6.70;73.50
37560;DHT22;23398;50.928;7.084;2023-05-18T02:02:46;6.60;73.40
37560;DHT22;23398;50.928;7.084;2023-05-18T02:05:12;6.60;73.40
37560;DHT22;23398;50.928;7.084;2023-05-18T02:07:38;6.60;73.40
37560;DHT22;23398;50.928;7.084;2023-05-18T02:10:05;6.50;73.40
37560;DHT22;23398;50.928;7.084;2023-05-18T02:12:31;6.50;73.60
37560;DHT22;23398;50.928;7.084;2023-05-18T02:14:57;6.50;73.60
37560;DHT22;23398;50.928;7.084;2023-05-18T02:17:25;6.40;73.70
37560;DHT22;23398;50.928;7.084;2023-05-18T02:19:51;6.40;73.90
37560;DHT22;23398;50.928;7.084;2023-05-18T02:22:16;6.30;74.00
37560;DHT22;23398;50.928;7.084;2023-05-18T02:24:42;6.30;74.30
37560;DHT22;23398;50.928;7.084;2023-05-18T02:27:10;6.30;74.70
37560;DHT22;23398;50.928;7.084;2023-05-18T02:29:35;6.20;75.00
37560;DHT22;23398;50.928;7.084;2023-05-18T02:32:02;6.20;75.30
37560;DHT22;23398;50.928;7.084;2023-05-18T02:34:28;6.20;75.60
37560;DHT22;23398;50.928;7.084;2023-05-18T02:36:57;6.20;75.90
37560;DHT22;23398;50.928;7.084;2023-05-18T02:39:28;6.20;76.10
37560;DHT22;23398;50.928;7.084;2023-05-18T02:41:53;6.20;76.10
37560;DHT22;23398;50.928;7.084;2023-05-18T02:44:19;6.10;75.90
37560;DHT22;23398;50.928;7.084;2023-05-18T02:46:45;6.10;75.60
37560;DHT22;23398;50.928;7.084;2023-05-18T02:49:10;6.10;75.40
37560;DHT22;23398;50.928;7.084;2023-05-18T02:51:36;6.00;75.40
37560;DHT22;23398;50.928;7.084;2023-05-18T02:54:01;6.00;75.60
37560;DHT22;23398;50.928;7.084;2023-05-18T02:56:27;6.00;75.80
37560;DHT22;23398;50.928;7.084;2023-05-18T02:58:53;5.90;76.10
37560;DHT22;23398;50.928;7.084;2023-05-18T03:01:22;5.90;76.60
37560;DHT22;23398;50.928;7.084;2023-05-18T03:03:54;5.90;77.10
37560;DHT22;23398;50.928;7.084;2023-05-18T03:06:21;5.90;77.60
37560;DHT22;23398;50.928;7.084;2023-05-18T03:08:51;5.90;77.90
37560;DHT22;23398;50.928;7.084;2023-05-18T03:11:19;5.90;78.70
37560;DHT22;23398;50.928;7.084;2023-05-18T03:13:46;5.90;78.50
37560;DHT22;23398;50.928;7.084;2023-05-18T03:16:12;5.90;78.60
37560;DHT22;23398;50.928;7.084;2023-05-18T03:18:38;5.80;78.60
37560;DHT22;23398;50.928;7.084;2023-05-18T03:21:03;5.90;78.70
37560;DHT22;23398;50.928;7.084;2023-05-18T03:23:29;5.80;78.60
37560;DHT22;23398;50.928;7.084;2023-05-18T03:25:55;5.80;78.50
37560;DHT22;23398;50.928;7.084;2023-05-18T03:28:21;5.80;78.50
37560;DHT22;23398;50.928;7.084;2023-05-18T03:30:47;5.80;79.40
37560;DHT22;23398;50.928;7.084;2023-05-18T03:33:12;5.80;78.50
37560;DHT22;23398;50.928;7.084;2023-05-18T03:35:38;5.70;78.50
37560;DHT22;23398;50.928;7.084;2023-05-18T03:38:05;5.70;78.50
37560;DHT22;23398;50.928;7.084;2023-05-18T03:40:31;5.70;78.60
37560;DHT22;23398;50.928;7.084;2023-05-18T03:42:56;5.70;79.00
37560;DHT22;23398;50.928;7.084;2023-05-18T03:45:22;5.70;79.50
37560;DHT22;23398;50.928;7.084;2023-05-18T03:47:47;5.60;79.90
37560;DHT22;23398;50.928;7.084;2023-05-18T03:50:13;5.60;80.30
37560;DHT22;23398;50.928;7.084;2023-05-18T03:52:39;5.60;80.60
37560;DHT22;23398;50.928;7.084;2023-05-18T03:55:06;5.70;81.10
37560;DHT22;23398;50.928;7.084;2023-05-18T03:57:31;5.70;81.30
37560;DHT22;23398;50.928;7.084;2023-05-18T03:59:57;5.70;81.50
37560;DHT22;23398;50.928;7.084;2023-05-18T04:02:24;5.70;81.60
37560;DHT22;23398;50.928;7.084;2023-05-18T04:04:50;5.70;81.80
37560;DHT22;23398;50.928;7.084;2023-05-18T04:07:18;5.70;81.70
37560;DHT22;23398;50.928;7.084;2023-05-18T04:09:47;5.80;81.90
37560;DHT22;23398;50.928;7.084;2023-05-18T04:12:13;5.80;81.90
37560;DHT22;23398;50.928;7.084;2023-05-18T04:14:39;5.80;81.90
37560;DHT22;23398;50.928;7.084;2023-05-18T04:17:06;5.80;82.00
37560;DHT22;23398;50.928;7.084;2023-05-18T04:19:36;5.90;82.10
37560;DHT22;23398;50.928;7.084;2023-05-18T04:22:03;5.90;82.70
37560;DHT22;23398;50.928;7.084;2023-05-18T04:24:29;5.90;82.60
37560;DHT22;23398;50.928;7.084;2023-05-18T04:27:00;6.00;82.80
37560;DHT22;23398;50.928;7.084;2023-05-18T04:29:27;6.10;83.10
37560;DHT22;23398;50.928;7.084;2023-05-18T04:31:53;6.10;83.50
37560;DHT22;23398;50.928;7.084;2023-05-18T04:34:26;6.20;83.80
37560;DHT22;23398;50.928;7.084;2023-05-18T04:36:51;6.20;84.00
37560;DHT22;23398;50.928;7.084;2023-05-18T04:39:21;6.30;84.30
37560;DHT22;23398;50.928;7.084;2023-05-18T04:41:51;6.40;84.70
37560;DHT22;23398;50.928;7.084;2023-05-18T04:44:26;6.50;85.10
37560;DHT22;23398;50.928;7.084;2023-05-18T04:46:53;6.60;85.40
37560;DHT22;23398;50.928;7.084;2023-05-18T04:49:19;6.70;86.40
37560;DHT22;23398;50.928;7.084;2023-05-18T04:51:48;6.80;85.90
37560;DHT22;23398;50.928;7.084;2023-05-18T04:54:14;6.80;86.00
37560;DHT22;23398;50.928;7.084;2023-05-18T04:56:41;6.90;86.00
37560;DHT22;23398;50.928;7.084;2023-05-18T04:59:08;7.00;86.10
37560;DHT22;23398;50.928;7.084;2023-05-18T05:01:33;7.20;86.50
37560;DHT22;23398;50.928;7.084;2023-05-18T05:03:59;7.30;86.40
37560;DHT22;23398;50.928;7.084;2023-05-18T05:06:25;7.40;86.60
37560;DHT22;23398;50.928;7.084;2023-05-18T05:08:50;7.50;86.80
37560;DHT22;23398;50.928;7.084;2023-05-18T05:11:16;7.60;87.00
37560;DHT22;23398;50.928;7.084;2023-05-18T05:13:42;7.70;87.20
37560;DHT22;23398;50.928;7.084;2023-05-18T05:16:07;7.90;87.40
37560;DHT22;23398;50.928;7.084;2023-05-18T05:18:33;8.00;87.20
37560;DHT22;23398;50.928;7.084;2023-05-18T05:20:58;8.10;86.90
37560;DHT22;23398;50.928;7.084;2023-05-18T05:23:24;8.20;86.90
37560;DHT22;23398;50.928;7.084;2023-05-18T05:25:50;8.40;87.10
37560;DHT22;23398;50.928;7.084;2023-05-18T05:28:15;8.60;87.30
37560;DHT22;23398;50.928;7.084;2023-05-18T05:30:41;8.70;87.20
37560;DHT22;23398;50.928;7.084;2023-05-18T05:33:07;8.80;87.20
37560;DHT22;23398;50.928;7.084;2023-05-18T05:35:32;8.90;86.80
37560;DHT22;23398;50.928;7.084;2023-05-18T05:37:58;9.10;86.50
37560;DHT22;23398;50.928;7.084;2023-05-18T05:40:23;9.20;86.10
37560;DHT22;23398;50.928;7.084;2023-05-18T05:42:49;9.40;86.10
37560;DHT22;23398;50.928;7.084;2023-05-18T05:45:15;9.50;85.50
37560;DHT22;23398;50.928;7.084;2023-05-18T05:47:40;9.60;84.70
37560;DHT22;23398;50.928;7.084;2023-05-18T05:50:06;9.80;83.90
37560;DHT22;23398;50.928;7.084;2023-05-18T05:52:32;9.90;82.90
37560;DHT22;23398;50.928;7.084;2023-05-18T05:54:57;10.10;80.60
37560;DHT22;23398;50.928;7.084;2023-05-18T05:57:23;10.20;79.40
37560;DHT22;23398;50.928;7.084;2023-05-18T05:59:48;10.40;79.00
37560;DHT22;23398;50.928;7.084;2023-05-18T06:02:14;10.50;77.80
37560;DHT22;23398;50.928;7.084;2023-05-18T06:04:39;10.70;77.00
37560;DHT22;23398;50.928;7.084;2023-05-18T06:07:05;10.90;76.20
37560;DHT22;23398;50.928;7.084;2023-05-18T06:09:31;11.00;76.20
37560;DHT22;23398;50.928;7.084;2023-05-18T06:11:57;11.20;76.00
37560;DHT22;23398;50.928;7.084;2023-05-18T06:14:23;11.30;76.00
37560;DHT22;23398;50.928;7.084;2023-05-18T06:16:48;11.50;75.80
37560;DHT22;23398;50.928;7.084;2023-05-18T06:19:14;11.60;75.60
37560;DHT22;23398;50.928;7.084;2023-05-18T06:21:39;11.80;74.60
37560;DHT22;23398;50.928;7.084;2023-05-18T06:24:05;12.00;73.90
37560;DHT22;23398;50.928;7.084;2023-05-18T06:26:31;12.10;73.40
37560;DHT22;23398;50.928;7.084;2023-05-18T06:28:57;12.30;72.90
37560;DHT22;23398;50.928;7.084;2023-05-18T06:31:23;12.40;72.30
37560;DHT22;23398;50.928;7.084;2023-05-18T06:33:48;12.60;71.50
37560;DHT22;23398;50.928;7.084;2023-05-18T06:36:17;12.70;71.80
37560;DHT22;23398;50.928;7.084;2023-05-18T06:38:42;12.90;70.90
37560;DHT22;23398;50.928;7.084;2023-05-18T06:41:08;13.10;71.60
37560;DHT22;23398;50.928;7.084;2023-05-18T06:43:34;13.60;74.30
37560;DHT22;23398;50.928;7.084;2023-05-18T06:45:59;14.20;78.50
37560;DHT22;23398;50.928;7.084;2023-05-18T06:48:26;15.20;78.90
37560;DHT22;23398;50.928;7.084;2023-05-18T06:50:52;16.30;78.40
37560;DHT22;23398;50.928;7.084;2023-05-18T06:53:18;17.60;75.30
37560;DHT22;23398;50.928;7.084;2023-05-18T06:55:44;19.00;71.70
37560;DHT22;23398;50.928;7.084;2023-05-18T06:58:09;20.50;67.90
37560;DHT22;23398;50.928;7.084;2023-05-18T07:00:35;22.00;65.00
37560;DHT22;23398;50.928;7.084;2023-05-18T07:03:00;23.40;61.30
37560;DHT22;23398;50.928;7.084;2023-05-18T07:05:27;24.80;58.50
37560;DHT22;23398;50.928;7.084;2023-05-18T07:07:52;26.10;55.20
37560;DHT22;23398;50.928;7.084;2023-05-18T07:10:18;27.50;53.10
37560;DHT22;23398;50.928;7.084;2023-05-18T07:12:43;28.70;50.50
37560;DHT22;23398;50.928;7.084;2023-05-18T07:15:09;29.80;48.10
37560;DHT22;23398;50.928;7.084;2023-05-18T07:17:36;30.90;46.00
37560;DHT22;23398;50.928;7.084;2023-05-18T07:20:02;31.90;44.30
37560;DHT22;23398;50.928;7.084;2023-05-18T07:22:30;32.90;42.00
37560;DHT22;23398;50.928;7.084;2023-05-18T07:24:55;33.80;40.30
37560;DHT22;23398;50.928;7.084;2023-05-18T07:27:23;34.60;38.50
37560;DHT22;23398;50.928;7.084;2023-05-18T07:29:49;35.50;36.60
37560;DHT22;23398;50.928;7.084;2023-05-18T07:32:15;36.20;34.20
37560;DHT22;23398;50.928;7.084;2023-05-18T07:34:40;37.00;33.10
37560;DHT22;23398;50.928;7.084;2023-05-18T07:37:08;37.30;31.60
37560;DHT22;23398;50.928;7.084;2023-05-18T07:39:34;37.80;30.80
37560;DHT22;23398;50.928;7.084;2023-05-18T07:42:01;38.20;30.00
37560;DHT22;23398;50.928;7.084;2023-05-18T07:44:26;38.60;29.40
37560;DHT22;23398;50.928;7.084;2023-05-18T07:46:52;38.90;29.40
37560;DHT22;23398;50.928;7.084;2023-05-18T07:49:18;39.30;29.90
37560;DHT22;23398;50.928;7.084;2023-05-18T07:51:44;39.70;28.90
37560;DHT22;23398;50.928;7.084;2023-05-18T07:54:09;40.00;28.10
37560;DHT22;23398;50.928;7.084;2023-05-18T07:56:35;40.30;27.80
37560;DHT22;23398;50.928;7.084;2023-05-18T07:59:01;40.60;27.60
37560;DHT22;23398;50.928;7.084;2023-05-18T08:01:26;40.90;27.20
37560;DHT22;23398;50.928;7.084;2023-05-18T08:03:54;41.30;27.10
37560;DHT22;23398;50.928;7.084;2023-05-18T08:06:20;41.70;26.40
37560;DHT22;23398;50.928;7.084;2023-05-18T08:08:46;42.20;26.10
37560;DHT22;23398;50.928;7.084;2023-05-18T08:11:12;42.60;26.20
37560;DHT22;23398;50.928;7.084;2023-05-18T08:13:37;43.10;25.80
37560;DHT22;23398;50.928;7.084;2023-05-18T08:16:03;43.50;25.30
37560;DHT22;23398;50.928;7.084;2023-05-18T08:18:29;43.80;24.60
37560;DHT22;23398;50.928;7.084;2023-05-18T08:20:55;44.10;24.50
37560;DHT22;23398;50.928;7.084;2023-05-18T08:23:20;44.20;23.80
37560;DHT22;23398;50.928;7.084;2023-05-18T08:25:47;44.40;23.70
37560;DHT22;23398;50.928;7.084;2023-05-18T08:28:13;44.60;23.20
37560;DHT22;23398;50.928;7.084;2023-05-18T08:30:38;44.70;23.20
37560;DHT22;23398;50.928;7.084;2023-05-18T08:33:04;44.90;23.30
37560;DHT22;23398;50.928;7.084;2023-05-18T08:35:29;45.10;22.70
37560;DHT22;23398;50.928;7.084;2023-05-18T08:37:56;45.20;22.80
37560;DHT22;23398;50.928;7.084;2023-05-18T08:40:24;45.40;22.30
37560;DHT22;23398;50.928;7.084;2023-05-18T08:43:15;45.50;22.40
37560;DHT22;23398;50.928;7.084;2023-05-18T08:45:51;45.30;21.50
37560;DHT22;23398;50.928;7.084;2023-05-18T08:48:19;45.10;22.00
37560;DHT22;23398;50.928;7.084;2023-05-18T08:50:47;45.00;21.90
37560;DHT22;23398;50.928;7.084;2023-05-18T08:53:20;45.00;21.30
37560;DHT22;23398;50.928;7.084;2023-05-18T08:55:52;45.00;21.40
37560;DHT22;23398;50.928;7.084;2023-05-18T08:58:19;44.80;21.10
37560;DHT22;23398;50.928;7.084;2023-05-18T09:00:48;44.30;20.70
37560;DHT22;23398;50.928;7.084;2023-05-18T09:03:18;43.90;20.60
37560;DHT22;23398;50.928;7.084;2023-05-18T09:05:46;43.40;21.00
37560;DHT22;23398;50.928;7.084;2023-05-18T09:08:13;43.10;21.40
37560;DHT22;23398;50.928;7.084;2023-05-18T09:10:39;42.90;21.80
37560;DHT22;23398;50.928;7.084;2023-05-18T09:13:05;43.00;22.60
37560;DHT22;23398;50.928;7.084;2023-05-18T09:15:32;43.10;21.70
37560;DHT22;23398;50.928;7.084;2023-05-18T09:17:59;43.40;21.40
37560;DHT22;23398;50.928;7.084;2023-05-18T09:20:25;43.70;21.50
37560;DHT22;23398;50.928;7.084;2023-05-18T09:22:52;43.90;20.60
37560;DHT22;23398;50.928;7.084;2023-05-18T09:25:17;44.10;20.90
37560;DHT22;23398;50.928;7.084;2023-05-18T09:27:44;44.30;21.30
37560;DHT22;23398;50.928;7.084;2023-05-18T09:30:10;44.60;21.10
37560;DHT22;23398;50.928;7.084;2023-05-18T09:32:36;44.80;20.60
37560;DHT22;23398;50.928;7.084;2023-05-18T09:35:07;45.10;20.00
37560;DHT22;23398;50.928;7.084;2023-05-18T09:37:33;45.10;20.40
37560;DHT22;23398;50.928;7.084;2023-05-18T09:40:04;45.10;20.10
37560;DHT22;23398;50.928;7.084;2023-05-18T09:42:43;44.70;20.00
37560;DHT22;23398;50.928;7.084;2023-05-18T09:45:20;43.80;20.20
37560;DHT22;23398;50.928;7.084;2023-05-18T09:47:49;42.80;20.40
37560;DHT22;23398;50.928;7.084;2023-05-18T09:50:18;41.90;20.80
37560;DHT22;23398;50.928;7.084;2023-05-18T09:52:44;41.00;21.20
37560;DHT22;23398;50.928;7.084;2023-05-18T09:55:17;40.40;21.80
37560;DHT22;23398;50.928;7.084;2023-05-18T09:57:45;39.90;21.40
37560;DHT22;23398;50.928;7.084;2023-05-18T10:00:12;39.70;22.50
37560;DHT22;23398;50.928;7.084;2023-05-18T10:02:43;39.30;23.00
37560;DHT22;23398;50.928;7.084;2023-05-18T10:05:40;39.20;22.20
37560;DHT22;23398;50.928;7.084;2023-05-18T10:08:06;38.90;22.40
37560;DHT22;23398;50.928;7.084;2023-05-18T10:10:37;38.80;22.10
37560;DHT22;23398;50.928;7.084;2023-05-18T10:13:04;38.90;22.60
37560;DHT22;23398;50.928;7.084;2023-05-18T10:15:30;39.00;22.90
37560;DHT22;23398;50.928;7.084;2023-05-18T10:17:57;39.10;23.00
37560;DHT22;23398;50.928;7.084;2023-05-18T10:20:24;39.10;22.70
37560;DHT22;23398;50.928;7.084;2023-05-18T10:22:51;39.30;23.00
37560;DHT22;23398;50.928;7.084;2023-05-18T10:25:20;39.50;22.30
37560;DHT22;23398;50.928;7.084;2023-05-18T10:27:48;39.90;21.90
37560;DHT22;23398;50.928;7.084;2023-05-18T10:30:14;40.20;22.40
37560;DHT22;23398;50.928;7.084;2023-05-18T10:32:42;40.60;22.20
37560;DHT22;23398;50.928;7.084;2023-05-18T10:35:09;40.90;21.70
37560;DHT22;23398;50.928;7.084;2023-05-18T10:37:38;41.30;22.00
37560;DHT22;23398;50.928;7.084;2023-05-18T10:40:06;41.40;21.50
37560;DHT22;23398;50.928;7.084;2023-05-18T10:42:32;41.30;21.50
37560;DHT22;23398;50.928;7.084;2023-05-18T10:44:59;40.80;20.90
37560;DHT22;23398;50.928;7.084;2023-05-18T10:47:26;40.20;21.60
37560;DHT22;23398;50.928;7.084;2023-05-18T10:49:53;39.30;21.40
37560;DHT22;23398;50.928;7.084;2023-05-18T10:52:19;38.40;22.00
37560;DHT22;23398;50.928;7.084;2023-05-18T10:54:45;37.40;23.00
37560;DHT22;23398;50.928;7.084;2023-05-18T10:57:13;36.60;22.70
37560;DHT22;23398;50.928;7.084;2023-05-18T10:59:44;35.60;23.10
37560;DHT22;23398;50.928;7.084;2023-05-18T11:02:13;34.70;23.90
37560;DHT22;23398;50.928;7.084;2023-05-18T11:04:39;33.80;24.00
37560;DHT22;23398;50.928;7.084;2023-05-18T11:07:09;33.10;25.00
37560;DHT22;23398;50.928;7.084;2023-05-18T11:09:35;32.20;25.30
37560;DHT22;23398;50.928;7.084;2023-05-18T11:12:01;31.60;25.50
37560;DHT22;23398;50.928;7.084;2023-05-18T11:14:31;30.90;25.80
37560;DHT22;23398;50.928;7.084;2023-05-18T11:17:25;30.20;26.30
37560;DHT22;23398;50.928;7.084;2023-05-18T11:27:59;27.70;29.70
37560;DHT22;23398;50.928;7.084;2023-05-18T11:30:26;27.30;30.50
37560;DHT22;23398;50.928;7.084;2023-05-18T11:32:52;27.00;29.90
37560;DHT22;23398;50.928;7.084;2023-05-18T11:35:23;26.70;30.90
37560;DHT22;23398;50.928;7.084;2023-05-18T11:37:49;26.40;30.50
37560;DHT22;23398;50.928;7.084;2023-05-18T11:40:43;26.20;30.70
37560;DHT22;23398;50.928;7.084;2023-05-18T11:43:20;26.00;31.70
37560;DHT22;23398;50.928;7.084;2023-05-18T11:45:57;25.80;32.70
37560;DHT22;23398;50.928;7.084;2023-05-18T11:48:26;25.60;31.30
37560;DHT22;23398;50.928;7.084;2023-05-18T11:50:54;25.50;31.40
37560;DHT22;23398;50.928;7.084;2023-05-18T11:53:25;25.40;31.20
37560;DHT22;23398;50.928;7.084;2023-05-18T11:55:52;25.30;30.80
37560;DHT22;23398;50.928;7.084;2023-05-18T11:58:19;25.10;31.00
37560;DHT22;23398;50.928;7.084;2023-05-18T12:00:47;25.10;31.20
37560;DHT22;23398;50.928;7.084;2023-05-18T12:03:13;24.90;31.60
37560;DHT22;23398;50.928;7.084;2023-05-18T12:05:40;24.80;31.90
37560;DHT22;23398;50.928;7.084;2023-05-18T12:08:08;24.70;32.30
37560;DHT22;23398;50.928;7.084;2023-05-18T12:10:33;24.50;33.00
37560;DHT22;23398;50.928;7.084;2023-05-18T12:13:01;24.40;32.60
37560;DHT22;23398;50.928;7.084;2023-05-18T12:15:27;24.30;33.20
37560;DHT22;23398;50.928;7.084;2023-05-18T12:17:57;24.20;33.70
37560;DHT22;23398;50.928;7.084;2023-05-18T12:20:23;24.10;34.80
37560;DHT22;23398;50.928;7.084;2023-05-18T12:22:51;24.00;33.40
37560;DHT22;23398;50.928;7.084;2023-05-18T12:25:24;23.80;34.60
37560;DHT22;23398;50.928;7.084;2023-05-18T12:27:51;23.70;33.60
37560;DHT22;23398;50.928;7.084;2023-05-18T12:30:19;23.70;34.10
37560;DHT22;23398;50.928;7.084;2023-05-18T12:32:50;23.50;33.70
37560;DHT22;23398;50.928;7.084;2023-05-18T12:35:27;23.30;33.70
37560;DHT22;23398;50.928;7.084;2023-05-18T12:37:54;23.10;34.50
37560;DHT22;23398;50.928;7.084;2023-05-18T12:40:21;23.00;34.30
37560;DHT22;23398;50.928;7.084;2023-05-18T12:42:54;22.90;33.80
37560;DHT22;23398;50.928;7.084;2023-05-18T12:45:26;22.80;34.80
37560;DHT22;23398;50.928;7.084;2023-05-18T12:47:52;22.70;34.00
37560;DHT22;23398;50.928;7.084;2023-05-18T12:50:20;22.70;34.30
37560;DHT22;23398;50.928;7.084;2023-05-18T12:52:49;22.70;34.40
37560;DHT22;23398;50.928;7.084;2023-05-18T12:55:17;22.60;34.50
37560;DHT22;23398;50.928;7.084;2023-05-18T12:57:57;22.70;34.30
37560;DHT22;23398;50.928;7.084;2023-05-18T13:00:23;22.60;34.80
37560;DHT22;23398;50.928;7.084;2023-05-18T13:02:48;22.70;35.20
37560;DHT22;23398;50.928;7.084;2023-05-18T13:05:14;22.80;35.60
37560;DHT22;23398;50.928;7.084;2023-05-18T13:07:41;22.80;35.20
37560;DHT22;23398;50.928;7.084;2023-05-18T13:10:13;22.80;35.20
37560;DHT22;23398;50.928;7.084;2023-05-18T13:12:44;22.80;34.70
37560;DHT22;23398;50.928;7.084;2023-05-18T13:15:23;22.80;35.40
37560;DHT22;23398;50.928;7.084;2023-05-18T13:17:55;22.80;35.40
37560;DHT22;23398;50.928;7.084;2023-05-18T13:20:22;22.90;36.00
37560;DHT22;23398;50.928;7.084;2023-05-18T13:22:51;22.90;36.40
37560;DHT22;23398;50.928;7.084;2023-05-18T13:25:16;23.00;36.00
37560;DHT22;23398;50.928;7.084;2023-05-18T13:27:42;23.00;36.70
37560;DHT22;23398;50.928;7.084;2023-05-18T13:30:10;23.00;36.00
37560;DHT22;23398;50.928;7.084;2023-05-18T13:32:36;23.00;35.90
37560;DHT22;23398;50.928;7.084;2023-05-18T13:35:04;23.00;35.60
37560;DHT22;23398;50.928;7.084;2023-05-18T13:37:30;23.00;36.30
37560;DHT22;23398;50.928;7.084;2023-05-18T13:43:45;23.00;36.70
37560;DHT22;23398;50.928;7.084;2023-05-18T13:46:12;23.00;37.00
37560;DHT22;23398;50.928;7.084;2023-05-18T13:48:37;23.20;36.70
37560;DHT22;23398;50.928;7.084;2023-05-18T13:51:03;23.20;37.00
37560;DHT22;23398;50.928;7.084;2023-05-18T13:53:28;23.20;36.90
37560;DHT22;23398;50.928;7.084;2023-05-18T13:55:54;23.30;36.90
37560;DHT22;23398;50.928;7.084;2023-05-18T13:58:20;23.30;36.20
37560;DHT22;23398;50.928;7.084;2023-05-18T14:00:45;23.20;36.80
37560;DHT22;23398;50.928;7.084;2023-05-18T14:03:11;23.10;35.70
37560;DHT22;23398;50.928;7.084;2023-05-18T14:05:37;23.00;35.10
37560;DHT22;23398;50.928;7.084;2023-05-18T14:08:02;23.00;36.40
37560;DHT22;23398;50.928;7.084;2023-05-18T14:10:28;22.90;35.80
37560;DHT22;23398;50.928;7.084;2023-05-18T14:12:54;22.90;35.80
37560;DHT22;23398;50.928;7.084;2023-05-18T14:15:19;23.00;36.30
37560;DHT22;23398;50.928;7.084;2023-05-18T14:17:45;23.00;36.00
37560;DHT22;23398;50.928;7.084;2023-05-18T14:20:12;23.00;36.90
37560;DHT22;23398;50.928;7.084;2023-05-18T14:22:37;23.00;37.10
37560;DHT22;23398;50.928;7.084;2023-05-18T14:25:04;23.00;37.20
37560;DHT22;23398;50.928;7.084;2023-05-18T14:27:29;23.00;36.90
37560;DHT22;23398;50.928;7.084;2023-05-18T14:29:55;22.90;39.50
37560;DHT22;23398;50.928;7.084;2023-05-18T14:32:21;22.90;38.90
37560;DHT22;23398;50.928;7.084;2023-05-18T14:34:49;22.90;38.10
37560;DHT22;23398;50.928;7.084;2023-05-18T14:37:17;22.90;38.20
37560;DHT22;23398;50.928;7.084;2023-05-18T14:39:43;22.90;38.40
37560;DHT22;23398;50.928;7.084;2023-05-18T14:42:08;22.90;37.40
37560;DHT22;23398;50.928;7.084;2023-05-18T14:44:34;22.90;38.80
37560;DHT22;23398;50.928;7.084;2023-05-18T14:46:59;22.80;38.30
37560;DHT22;23398;50.928;7.084;2023-05-18T14:49:25;22.90;37.80
37560;DHT22;23398;50.928;7.084;2023-05-18T14:51:51;22.70;37.30
37560;DHT22;23398;50.928;7.084;2023-05-18T14:54:17;22.80;37.80
37560;DHT22;23398;50.928;7.084;2023-05-18T14:56:43;22.80;38.70
37560;DHT22;23398;50.928;7.084;2023-05-18T14:59:09;22.90;39.00
37560;DHT22;23398;50.928;7.084;2023-05-18T15:01:35;22.70;38.60
37560;DHT22;23398;50.928;7.084;2023-05-18T15:04:00;23.00;38.90
37560;DHT22;23398;50.928;7.084;2023-05-18T15:06:27;23.00;38.80
37560;DHT22;23398;50.928;7.084;2023-05-18T15:08:52;22.90;38.60
37560;DHT22;23398;50.928;7.084;2023-05-18T15:11:18;22.80;38.90
37560;DHT22;23398;50.928;7.084;2023-05-18T15:13:45;22.70;38.70
37560;DHT22;23398;50.928;7.084;2023-05-18T15:16:10;22.40;40.70
37560;DHT22;23398;50.928;7.084;2023-05-18T15:18:37;22.30;40.30
37560;DHT22;23398;50.928;7.084;2023-05-18T15:21:02;22.20;40.60
37560;DHT22;23398;50.928;7.084;2023-05-18T15:23:28;22.20;40.50
37560;DHT22;23398;50.928;7.084;2023-05-18T15:25:53;22.20;40.60
37560;DHT22;23398;50.928;7.084;2023-05-18T15:28:19;22.10;40.90
37560;DHT22;23398;50.928;7.084;2023-05-18T15:30:44;22.20;41.30
37560;DHT22;23398;50.928;7.084;2023-05-18T15:33:10;22.20;41.50
37560;DHT22;23398;50.928;7.084;2023-05-18T15:35:36;22.30;41.10
37560;DHT22;23398;50.928;7.084;2023-05-18T15:38:02;22.30;41.20
37560;DHT22;23398;50.928;7.084;2023-05-18T15:40:28;22.40;40.80
37560;DHT22;23398;50.928;7.084;2023-05-18T15:42:54;22.60;41.00
37560;DHT22;23398;50.928;7.084;2023-05-18T15:45:19;22.50;40.80
37560;DHT22;23398;50.928;7.084;2023-05-18T15:47:45;22.40;41.90
37560;DHT22;23398;50.928;7.084;2023-05-18T15:50:10;22.30;40.80
37560;DHT22;23398;50.928;7.084;2023-05-18T15:52:37;22.30;41.00
37560;DHT22;23398;50.928;7.084;2023-05-18T15:55:03;22.30;41.30
37560;DHT22;23398;50.928;7.084;2023-05-18T15:57:29;22.20;41.20
37560;DHT22;23398;50.928;7.084;2023-05-18T15:59:55;22.20;41.50
37560;DHT22;23398;50.928;7.084;2023-05-18T16:02:20;22.20;41.30